sensor_id;sensor_type;location;lat;lon;timestamp;P1;durP1;ratioP1;P2;durP2;ratioP2
22752;SDS011;11543;43.144;24.684;2024-02-28T00:00:11;25.92;;;12.38;;
22752;SDS011;11543;43.144;24.684;2024-02-28T00:02:37;25.83;;;12.30;;
22752;SDS011;11543;43.144;24.684;2024-02-28T00:05:03;30.02;;;11.98;;
22752;SDS011;11543;43.144;24.684;2024-02-28T00:07:28;23.45;;;11.80;;
22752;SDS011;11543;43.144;24.684;2024-02-28T00:09:55;20.55;;;10.95;;
22752;SDS011;11543;43.144;24.684;2024-02-28T00:12:25;28.15;;;11.63;;
22752;SDS011;11543;43.144;24.684;2024-02-28T00:14:51;27.27;;;10.23;;
22752;SDS011;11543;43.144;24.684;2024-02-28T00:17:16;23.98;;;10.40;;
22752;SDS011;11543;43.144;24.684;2024-02-28T00:19:42;20.17;;;9.75;;
22752;SDS011;11543;43.144;24.684;2024-02-28T00:22:08;24.60;;;10.32;;
22752;SDS011;11543;43.144;24.684;2024-02-28T00:24:34;24.17;;;10.50;;
22752;SDS011;11543;43.144;24.684;2024-02-28T00:27:00;23.70;;;10.32;;
22752;SDS011;11543;43.144;24.684;2024-02-28T00:29:25;23.40;;;10.75;;
22752;SDS011;11543;43.144;24.684;2024-02-28T00:31:51;22.02;;;9.68;;
22752;SDS011;11543;43.144;24.684;2024-02-28T00:34:17;23.85;;;12.00;;
22752;SDS011;11543;43.144;24.684;2024-02-28T00:36:42;26.63;;;12.32;;
22752;SDS011;11543;43.144;24.684;2024-02-28T00:39:08;29.48;;;13.82;;
22752;SDS011;11543;43.144;24.684;2024-02-28T00:41:34;23.58;;;13.13;;
22752;SDS011;11543;43.144;24.684;2024-02-28T00:44:00;30.42;;;13.20;;
22752;SDS011;11543;43.144;24.684;2024-02-28T00:46:25;30.25;;;13.15;;
22752;SDS011;11543;43.144;24.684;2024-02-28T00:48:50;21.52;;;12.40;;
22752;SDS011;11543;43.144;24.684;2024-02-28T00:51:16;24.88;;;11.65;;
22752;SDS011;11543;43.144;24.684;2024-02-28T00:53:41;26.15;;;10.43;;
22752;SDS011;11543;43.144;24.684;2024-02-28T00:56:08;15.95;;;7.82;;
22752;SDS011;11543;43.144;24.684;2024-02-28T00:58:33;16.65;;;7.45;;
22752;SDS011;11543;43.144;24.684;2024-02-28T01:00:59;21.33;;;7.97;;
22752;SDS011;11543;43.144;24.684;2024-02-28T01:03:24;19.15;;;8.70;;
22752;SDS011;11543;43.144;24.684;2024-02-28T01:05:50;18.48;;;8.00;;
22752;SDS011;11543;43.144;24.684;2024-02-28T01:08:16;17.92;;;8.15;;
22752;SDS011;11543;43.144;24.684;2024-02-28T01:10:45;19.30;;;9.13;;
22752;SDS011;11543;43.144;24.684;2024-02-28T01:13:11;22.67;;;10.82;;
22752;SDS011;11543;43.144;24.684;2024-02-28T01:15:36;20.88;;;10.45;;
22752;SDS011;11543;43.144;24.684;2024-02-28T01:18:02;21.40;;;10.23;;
22752;SDS011;11543;43.144;24.684;2024-02-28T01:20:27;19.55;;;9.95;;
22752;SDS011;11543;43.144;24.684;2024-02-28T01:22:53;23.33;;;10.27;;
22752;SDS011;11543;43.144;24.684;2024-02-28T01:25:18;23.67;;;10.60;;
22752;SDS011;11543;43.144;24.684;2024-02-28T01:27:44;21.98;;;9.77;;
22752;SDS011;11543;43.144;24.684;2024-02-28T01:30:09;24.05;;;10.52;;
22752;SDS011;11543;43.144;24.684;2024-02-28T01:32:35;23.95;;;10.40;;
22752;SDS011;11543;43.144;24.684;2024-02-28T01:35:04;22.85;;;11.07;;
22752;SDS011;11543;43.144;24.684;2024-02-28T01:37:30;22.48;;;10.57;;
22752;SDS011;11543;43.144;24.684;2024-02-28T01:39:55;22.20;;;11.05;;
22752;SDS011;11543;43.144;24.684;2024-02-28T01:42:21;20.92;;;10.18;;
22752;SDS011;11543;43.144;24.684;2024-02-28T01:44:47;17.70;;;9.20;;
22752;SDS011;11543;43.144;24.684;2024-02-28T01:47:13;16.73;;;8.95;;
22752;SDS011;11543;43.144;24.684;2024-02-28T01:49:39;20.75;;;8.85;;
22752;SDS011;11543;43.144;24.684;2024-02-28T01:52:07;17.25;;;9.02;;
22752;SDS011;11543;43.144;24.684;2024-02-28T01:54:33;18.15;;;8.68;;
22752;SDS011;11543;43.144;24.684;2024-02-28T01:57:00;17.10;;;7.93;;
22752;SDS011;11543;43.144;24.684;2024-02-28T01:59:26;19.13;;;8.63;;
22752;SDS011;11543;43.144;24.684;2024-02-28T02:01:52;16.85;;;7.95;;
22752;SDS011;11543;43.144;24.684;2024-02-28T02:04:21;18.00;;;8.68;;
22752;SDS011;11543;43.144;24.684;2024-02-28T02:06:46;17.88;;;8.25;;
22752;SDS011;11543;43.144;24.684;2024-02-28T02:09:14;19.75;;;8.82;;
22752;SDS011;11543;43.144;24.684;2024-02-28T02:11:40;17.98;;;8.75;;
22752;SDS011;11543;43.144;24.684;2024-02-28T02:14:06;21.67;;;9.05;;
22752;SDS011;11543;43.144;24.684;2024-02-28T02:16:31;17.02;;;8.73;;
22752;SDS011;11543;43.144;24.684;2024-02-28T02:18:57;17.52;;;9.57;;
22752;SDS011;11543;43.144;24.684;2024-02-28T02:21:23;27.08;;;13.05;;
22752;SDS011;11543;43.144;24.684;2024-02-28T02:23:52;42.58;;;20.48;;
22752;SDS011;11543;43.144;24.684;2024-02-28T02:26:17;34.72;;;15.57;;
22752;SDS011;11543;43.144;24.684;2024-02-28T02:28:43;32.20;;;14.45;;
22752;SDS011;11543;43.144;24.684;2024-02-28T02:31:10;29.75;;;14.27;;
22752;SDS011;11543;43.144;24.684;2024-02-28T02:33:36;26.85;;;13.45;;
22752;SDS011;11543;43.144;24.684;2024-02-28T02:36:02;24.88;;;12.88;;
22752;SDS011;11543;43.144;24.684;2024-02-28T02:38:27;24.52;;;11.93;;
22752;SDS011;11543;43.144;24.684;2024-02-28T02:40:53;25.10;;;15.00;;
22752;SDS011;11543;43.144;24.684;2024-02-28T02:43:18;30.30;;;17.25;;
22752;SDS011;11543;43.144;24.684;2024-02-28T02:45:44;26.08;;;15.50;;
22752;SDS011;11543;43.144;24.684;2024-02-28T02:48:10;27.27;;;14.90;;
22752;SDS011;11543;43.144;24.684;2024-02-28T02:50:36;26.33;;;13.88;;
22752;SDS011;11543;43.144;24.684;2024-02-28T02:53:02;22.17;;;13.68;;
22752;SDS011;11543;43.144;24.684;2024-02-28T02:55:28;31.63;;;14.80;;
22752;SDS011;11543;43.144;24.684;2024-02-28T02:57:54;23.75;;;13.73;;
22752;SDS011;11543;43.144;24.684;2024-02-28T03:00:20;25.83;;;12.68;;
22752;SDS011;11543;43.144;24.684;2024-02-28T03:02:46;22.98;;;12.45;;
22752;SDS011;11543;43.144;24.684;2024-02-28T03:05:12;24.90;;;13.15;;
22752;SDS011;11543;43.144;24.684;2024-02-28T03:07:37;23.10;;;12.73;;
22752;SDS011;11543;43.144;24.684;2024-02-28T03:10:03;26.70;;;13.00;;
22752;SDS011;11543;43.144;24.684;2024-02-28T03:12:29;24.52;;;13.02;;
22752;SDS011;11543;43.144;24.684;2024-02-28T03:14:54;32.70;;;15.88;;
22752;SDS011;11543;43.144;24.684;2024-02-28T03:17:20;28.73;;;13.98;;
22752;SDS011;11543;43.144;24.684;2024-02-28T03:19:45;23.45;;;13.75;;
22752;SDS011;11543;43.144;24.684;2024-02-28T03:22:12;21.77;;;11.98;;
22752;SDS011;11543;43.144;24.684;2024-02-28T03:24:37;22.15;;;11.30;;
22752;SDS011;11543;43.144;24.684;2024-02-28T03:27:03;21.92;;;11.23;;
22752;SDS011;11543;43.144;24.684;2024-02-28T03:29:28;21.52;;;10.57;;
22752;SDS011;11543;43.144;24.684;2024-02-28T03:31:54;20.55;;;10.13;;
22752;SDS011;11543;43.144;24.684;2024-02-28T03:34:20;17.45;;;9.75;;
22752;SDS011;11543;43.144;24.684;2024-02-28T03:36:45;22.17;;;9.93;;
22752;SDS011;11543;43.144;24.684;2024-02-28T03:39:11;17.40;;;10.02;;
22752;SDS011;11543;43.144;24.684;2024-02-28T03:41:37;25.08;;;11.90;;
22752;SDS011;11543;43.144;24.684;2024-02-28T03:44:03;23.38;;;12.73;;
22752;SDS011;11543;43.144;24.684;2024-02-28T03:46:29;28.15;;;13.88;;
22752;SDS011;11543;43.144;24.684;2024-02-28T03:48:54;24.85;;;13.70;;
22752;SDS011;11543;43.144;24.684;2024-02-28T03:51:20;28.20;;;15.90;;
22752;SDS011;11543;43.144;24.684;2024-02-28T03:53:45;32.05;;;16.02;;
22752;SDS011;11543;43.144;24.684;2024-02-28T03:56:11;43.47;;;22.45;;
22752;SDS011;11543;43.144;24.684;2024-02-28T03:58:37;34.83;;;20.27;;
22752;SDS011;11543;43.144;24.684;2024-02-28T04:01:02;35.05;;;17.45;;
22752;SDS011;11543;43.144;24.684;2024-02-28T04:03:28;39.05;;;23.38;;
22752;SDS011;11543;43.144;24.684;2024-02-28T04:05:54;29.40;;;18.85;;
22752;SDS011;11543;43.144;24.684;2024-02-28T04:08:19;24.83;;;12.75;;
22752;SDS011;11543;43.144;24.684;2024-02-28T04:10:45;27.75;;;14.77;;
22752;SDS011;11543;43.144;24.684;2024-02-28T04:13:11;22.98;;;12.73;;
22752;SDS011;11543;43.144;24.684;2024-02-28T04:15:37;21.52;;;11.70;;
22752;SDS011;11543;43.144;24.684;2024-02-28T04:18:04;26.83;;;13.10;;
22752;SDS011;11543;43.144;24.684;2024-02-28T04:20:30;20.13;;;11.45;;
22752;SDS011;11543;43.144;24.684;2024-02-28T04:22:55;24.63;;;12.32;;
22752;SDS011;11543;43.144;24.684;2024-02-28T04:25:21;22.42;;;12.07;;
22752;SDS011;11543;43.144;24.684;2024-02-28T04:27:46;21.90;;;12.02;;
22752;SDS011;11543;43.144;24.684;2024-02-28T04:30:12;24.48;;;12.57;;
22752;SDS011;11543;43.144;24.684;2024-02-28T04:32:38;27.20;;;13.70;;
22752;SDS011;11543;43.144;24.684;2024-02-28T04:35:03;31.63;;;15.63;;
22752;SDS011;11543;43.144;24.684;2024-02-28T04:37:29;30.70;;;18.15;;
22752;SDS011;11543;43.144;24.684;2024-02-28T04:39:55;32.45;;;18.60;;
22752;SDS011;11543;43.144;24.684;2024-02-28T04:42:20;30.33;;;17.92;;
22752;SDS011;11543;43.144;24.684;2024-02-28T04:44:46;29.60;;;17.15;;
22752;SDS011;11543;43.144;24.684;2024-02-28T04:47:12;30.73;;;15.82;;
22752;SDS011;11543;43.144;24.684;2024-02-28T04:49:39;25.88;;;15.68;;
22752;SDS011;11543;43.144;24.684;2024-02-28T04:52:05;24.55;;;14.13;;
22752;SDS011;11543;43.144;24.684;2024-02-28T04:54:32;26.55;;;14.65;;
22752;SDS011;11543;43.144;24.684;2024-02-28T04:56:58;23.23;;;13.70;;
22752;SDS011;11543;43.144;24.684;2024-02-28T04:59:25;27.98;;;13.93;;
22752;SDS011;11543;43.144;24.684;2024-02-28T05:01:52;30.55;;;14.07;;
22752;SDS011;11543;43.144;24.684;2024-02-28T05:04:18;25.83;;;13.95;;
22752;SDS011;11543;43.144;24.684;2024-02-28T05:06:44;24.13;;;14.32;;
22752;SDS011;11543;43.144;24.684;2024-02-28T05:09:11;30.63;;;17.25;;
22752;SDS011;11543;43.144;24.684;2024-02-28T05:11:36;24.77;;;14.73;;
22752;SDS011;11543;43.144;24.684;2024-02-28T05:14:06;28.00;;;14.75;;
22752;SDS011;11543;43.144;24.684;2024-02-28T05:16:31;39.85;;;19.85;;
22752;SDS011;11543;43.144;24.684;2024-02-28T05:18:57;39.88;;;21.10;;
22752;SDS011;11543;43.144;24.684;2024-02-28T05:21:23;42.35;;;21.60;;
22752;SDS011;11543;43.144;24.684;2024-02-28T05:23:48;39.33;;;21.42;;
22752;SDS011;11543;43.144;24.684;2024-02-28T05:26:14;37.83;;;22.65;;
22752;SDS011;11543;43.144;24.684;2024-02-28T05:28:39;41.30;;;23.85;;
22752;SDS011;11543;43.144;24.684;2024-02-28T05:31:19;40.45;;;22.77;;
22752;SDS011;11543;43.144;24.684;2024-02-28T05:33:46;38.22;;;19.02;;
22752;SDS011;11543;43.144;24.684;2024-02-28T05:36:12;30.02;;;16.40;;
22752;SDS011;11543;43.144;24.684;2024-02-28T05:38:37;34.90;;;17.20;;
22752;SDS011;11543;43.144;24.684;2024-02-28T05:41:03;28.85;;;15.65;;
22752;SDS011;11543;43.144;24.684;2024-02-28T05:43:28;29.65;;;15.93;;
22752;SDS011;11543;43.144;24.684;2024-02-28T05:45:54;27.58;;;16.00;;
22752;SDS011;11543;43.144;24.684;2024-02-28T05:48:19;30.77;;;17.33;;
22752;SDS011;11543;43.144;24.684;2024-02-28T05:50:45;31.55;;;17.58;;
22752;SDS011;11543;43.144;24.684;2024-02-28T05:53:11;32.20;;;17.88;;
22752;SDS011;11543;43.144;24.684;2024-02-28T05:55:36;32.55;;;19.27;;
22752;SDS011;11543;43.144;24.684;2024-02-28T05:58:02;37.10;;;20.95;;
22752;SDS011;11543;43.144;24.684;2024-02-28T06:00:28;53.28;;;33.00;;
22752;SDS011;11543;43.144;24.684;2024-02-28T06:02:54;58.15;;;35.63;;
22752;SDS011;11543;43.144;24.684;2024-02-28T06:05:19;59.30;;;35.10;;
22752;SDS011;11543;43.144;24.684;2024-02-28T06:07:45;59.90;;;35.20;;
22752;SDS011;11543;43.144;24.684;2024-02-28T06:10:10;50.92;;;30.88;;
22752;SDS011;11543;43.144;24.684;2024-02-28T06:12:36;48.58;;;29.10;;
22752;SDS011;11543;43.144;24.684;2024-02-28T06:15:02;43.58;;;25.23;;
22752;SDS011;11543;43.144;24.684;2024-02-28T06:17:28;40.15;;;24.70;;
22752;SDS011;11543;43.144;24.684;2024-02-28T06:19:54;41.58;;;23.45;;
22752;SDS011;11543;43.144;24.684;2024-02-28T06:22:19;37.10;;;21.95;;
22752;SDS011;11543;43.144;24.684;2024-02-28T06:24:45;37.50;;;21.67;;
22752;SDS011;11543;43.144;24.684;2024-02-28T06:27:11;34.08;;;19.77;;
22752;SDS011;11543;43.144;24.684;2024-02-28T06:29:38;33.35;;;19.90;;
22752;SDS011;11543;43.144;24.684;2024-02-28T06:32:04;37.67;;;19.88;;
22752;SDS011;11543;43.144;24.684;2024-02-28T06:34:30;33.70;;;18.70;;
22752;SDS011;11543;43.144;24.684;2024-02-28T06:36:57;31.77;;;19.85;;
22752;SDS011;11543;43.144;24.684;2024-02-28T06:39:22;31.38;;;18.08;;
22752;SDS011;11543;43.144;24.684;2024-02-28T06:41:48;32.40;;;18.73;;
22752;SDS011;11543;43.144;24.684;2024-02-28T06:44:17;34.75;;;19.05;;
22752;SDS011;11543;43.144;24.684;2024-02-28T06:46:44;29.83;;;18.15;;
22752;SDS011;11543;43.144;24.684;2024-02-28T06:49:09;30.55;;;17.38;;
22752;SDS011;11543;43.144;24.684;2024-02-28T06:51:35;30.30;;;17.77;;
22752;SDS011;11543;43.144;24.684;2024-02-28T06:54:00;29.88;;;17.95;;
22752;SDS011;11543;43.144;24.684;2024-02-28T06:56:26;29.17;;;17.02;;
22752;SDS011;11543;43.144;24.684;2024-02-28T06:58:51;31.52;;;17.50;;
22752;SDS011;11543;43.144;24.684;2024-02-28T07:01:17;32.95;;;17.63;;
22752;SDS011;11543;43.144;24.684;2024-02-28T07:03:45;29.08;;;17.63;;
22752;SDS011;11543;43.144;24.684;2024-02-28T07:06:11;30.88;;;17.65;;
22752;SDS011;11543;43.144;24.684;2024-02-28T07:08:36;28.80;;;17.63;;
22752;SDS011;11543;43.144;24.684;2024-02-28T07:11:02;31.38;;;17.15;;
22752;SDS011;11543;43.144;24.684;2024-02-28T07:13:28;29.40;;;17.33;;
22752;SDS011;11543;43.144;24.684;2024-02-28T07:15:54;30.23;;;18.40;;
22752;SDS011;11543;43.144;24.684;2024-02-28T07:18:19;31.27;;;17.80;;
22752;SDS011;11543;43.144;24.684;2024-02-28T07:20:50;30.88;;;17.02;;
22752;SDS011;11543;43.144;24.684;2024-02-28T07:23:17;32.00;;;17.85;;
22752;SDS011;11543;43.144;24.684;2024-02-28T07:25:42;31.00;;;17.02;;
22752;SDS011;11543;43.144;24.684;2024-02-28T07:28:08;34.15;;;17.50;;
22752;SDS011;11543;43.144;24.684;2024-02-28T07:30:33;30.02;;;17.98;;
22752;SDS011;11543;43.144;24.684;2024-02-28T07:33:01;29.40;;;17.55;;
22752;SDS011;11543;43.144;24.684;2024-02-28T07:35:27;28.75;;;17.48;;
22752;SDS011;11543;43.144;24.684;2024-02-28T07:37:53;29.10;;;16.95;;
22752;SDS011;11543;43.144;24.684;2024-02-28T07:40:18;32.17;;;18.60;;
22752;SDS011;11543;43.144;24.684;2024-02-28T07:42:44;62.65;;;39.90;;
22752;SDS011;11543;43.144;24.684;2024-02-28T07:45:09;33.70;;;20.55;;
22752;SDS011;11543;43.144;24.684;2024-02-28T07:47:35;31.60;;;20.08;;
22752;SDS011;11543;43.144;24.684;2024-02-28T07:50:00;37.95;;;24.98;;
22752;SDS011;11543;43.144;24.684;2024-02-28T07:52:26;38.50;;;20.83;;
22752;SDS011;11543;43.144;24.684;2024-02-28T07:54:51;37.00;;;19.90;;
22752;SDS011;11543;43.144;24.684;2024-02-28T07:57:17;40.92;;;22.48;;
22752;SDS011;11543;43.144;24.684;2024-02-28T07:59:42;39.70;;;25.75;;
22752;SDS011;11543;43.144;24.684;2024-02-28T08:02:08;38.13;;;19.50;;
22752;SDS011;11543;43.144;24.684;2024-02-28T08:04:36;36.55;;;23.83;;
22752;SDS011;11543;43.144;24.684;2024-02-28T08:07:02;34.92;;;19.75;;
22752;SDS011;11543;43.144;24.684;2024-02-28T08:09:28;33.63;;;19.35;;
22752;SDS011;11543;43.144;24.684;2024-02-28T08:11:54;35.13;;;18.85;;
22752;SDS011;11543;43.144;24.684;2024-02-28T08:14:20;43.90;;;24.23;;
22752;SDS011;11543;43.144;24.684;2024-02-28T08:16:46;36.17;;;20.17;;
22752;SDS011;11543;43.144;24.684;2024-02-28T08:19:11;35.58;;;20.05;;
22752;SDS011;11543;43.144;24.684;2024-02-28T08:21:37;40.42;;;21.00;;
22752;SDS011;11543;43.144;24.684;2024-02-28T08:24:02;34.95;;;19.33;;
22752;SDS011;11543;43.144;24.684;2024-02-28T08:26:30;36.17;;;19.42;;
22752;SDS011;11543;43.144;24.684;2024-02-28T08:28:56;34.25;;;19.23;;
22752;SDS011;11543;43.144;24.684;2024-02-28T08:31:21;38.13;;;19.58;;
22752;SDS011;11543;43.144;24.684;2024-02-28T08:33:47;35.47;;;19.63;;
22752;SDS011;11543;43.144;24.684;2024-02-28T08:36:13;36.28;;;20.42;;
22752;SDS011;11543;43.144;24.684;2024-02-28T08:38:40;34.53;;;20.23;;
22752;SDS011;11543;43.144;24.684;2024-02-28T08:41:06;41.58;;;20.65;;
22752;SDS011;11543;43.144;24.684;2024-02-28T08:43:32;40.42;;;20.98;;
22752;SDS011;11543;43.144;24.684;2024-02-28T08:46:07;39.20;;;20.80;;
22752;SDS011;11543;43.144;24.684;2024-02-28T08:48:33;35.97;;;20.33;;
22752;SDS011;11543;43.144;24.684;2024-02-28T08:50:59;36.92;;;20.55;;
22752;SDS011;11543;43.144;24.684;2024-02-28T08:53:24;39.50;;;20.50;;
22752;SDS011;11543;43.144;24.684;2024-02-28T08:55:50;37.50;;;20.08;;
22752;SDS011;11543;43.144;24.684;2024-02-28T08:58:16;41.60;;;20.02;;
22752;SDS011;11543;43.144;24.684;2024-02-28T09:00:41;35.80;;;19.08;;
22752;SDS011;11543;43.144;24.684;2024-02-28T09:03:07;31.77;;;18.17;;
22752;SDS011;11543;43.144;24.684;2024-02-28T09:05:32;32.22;;;18.48;;
22752;SDS011;11543;43.144;24.684;2024-02-28T09:07:58;30.92;;;18.25;;
22752;SDS011;11543;43.144;24.684;2024-02-28T09:10:23;31.10;;;17.70;;
22752;SDS011;11543;43.144;24.684;2024-02-28T09:12:52;32.40;;;19.00;;
22752;SDS011;11543;43.144;24.684;2024-02-28T09:15:18;35.72;;;18.92;;
22752;SDS011;11543;43.144;24.684;2024-02-28T09:17:44;31.50;;;17.98;;
22752;SDS011;11543;43.144;24.684;2024-02-28T09:20:10;32.55;;;18.05;;
22752;SDS011;11543;43.144;24.684;2024-02-28T09:22:36;35.30;;;19.73;;
22752;SDS011;11543;43.144;24.684;2024-02-28T09:25:02;32.33;;;17.80;;
22752;SDS011;11543;43.144;24.684;2024-02-28T09:27:29;37.58;;;19.00;;
22752;SDS011;11543;43.144;24.684;2024-02-28T09:29:55;38.85;;;17.52;;
22752;SDS011;11543;43.144;24.684;2024-02-28T09:32:21;27.10;;;16.33;;
22752;SDS011;11543;43.144;24.684;2024-02-28T09:34:46;26.85;;;16.50;;
22752;SDS011;11543;43.144;24.684;2024-02-28T09:37:12;35.28;;;16.40;;
22752;SDS011;11543;43.144;24.684;2024-02-28T09:39:38;30.55;;;16.98;;
22752;SDS011;11543;43.144;24.684;2024-02-28T09:42:05;32.95;;;16.92;;
22752;SDS011;11543;43.144;24.684;2024-02-28T09:44:34;30.45;;;16.38;;
22752;SDS011;11543;43.144;24.684;2024-02-28T09:47:01;24.70;;;15.40;;
22752;SDS011;11543;43.144;24.684;2024-02-28T09:49:27;25.08;;;14.13;;
22752;SDS011;11543;43.144;24.684;2024-02-28T09:51:56;31.10;;;15.05;;
22752;SDS011;11543;43.144;24.684;2024-02-28T09:54:22;25.33;;;14.90;;
22752;SDS011;11543;43.144;24.684;2024-02-28T09:56:48;22.98;;;13.38;;
22752;SDS011;11543;43.144;24.684;2024-02-28T09:59:13;27.35;;;14.50;;
22752;SDS011;11543;43.144;24.684;2024-02-28T10:01:43;26.38;;;13.45;;
22752;SDS011;11543;43.144;24.684;2024-02-28T10:04:11;27.92;;;14.25;;
22752;SDS011;11543;43.144;24.684;2024-02-28T10:06:41;25.23;;;13.60;;
22752;SDS011;11543;43.144;24.684;2024-02-28T10:09:06;24.20;;;13.30;;
22752;SDS011;11543;43.144;24.684;2024-02-28T10:11:32;27.85;;;13.48;;
22752;SDS011;11543;43.144;24.684;2024-02-28T10:14:00;26.15;;;13.93;;
22752;SDS011;11543;43.144;24.684;2024-02-28T10:16:27;26.50;;;14.73;;
22752;SDS011;11543;43.144;24.684;2024-02-28T10:18:53;28.58;;;14.82;;
22752;SDS011;11543;43.144;24.684;2024-02-28T10:21:18;30.77;;;15.27;;
22752;SDS011;11543;43.144;24.684;2024-02-28T10:23:44;24.65;;;13.85;;
22752;SDS011;11543;43.144;24.684;2024-02-28T10:26:11;21.00;;;12.82;;
22752;SDS011;11543;43.144;24.684;2024-02-28T10:28:37;24.40;;;13.05;;
22752;SDS011;11543;43.144;24.684;2024-02-28T10:31:05;22.20;;;12.02;;
22752;SDS011;11543;43.144;24.684;2024-02-28T10:33:31;22.60;;;12.10;;
22752;SDS011;11543;43.144;24.684;2024-02-28T10:35:58;22.80;;;11.82;;
22752;SDS011;11543;43.144;24.684;2024-02-28T10:38:25;21.58;;;11.35;;
22752;SDS011;11543;43.144;24.684;2024-02-28T10:40:52;25.52;;;11.43;;
22752;SDS011;11543;43.144;24.684;2024-02-28T10:43:18;22.52;;;10.68;;
22752;SDS011;11543;43.144;24.684;2024-02-28T10:45:45;18.80;;;10.27;;
22752;SDS011;11543;43.144;24.684;2024-02-28T10:48:11;21.50;;;9.85;;
22752;SDS011;11543;43.144;24.684;2024-02-28T10:50:39;19.48;;;10.63;;
22752;SDS011;11543;43.144;24.684;2024-02-28T10:53:05;21.05;;;10.75;;
22752;SDS011;11543;43.144;24.684;2024-02-28T10:55:39;20.25;;;10.90;;
22752;SDS011;11543;43.144;24.684;2024-02-28T10:58:08;20.00;;;9.57;;
22752;SDS011;11543;43.144;24.684;2024-02-28T11:00:36;22.98;;;9.73;;
22752;SDS011;11543;43.144;24.684;2024-02-28T11:03:06;19.77;;;10.02;;
22752;SDS011;11543;43.144;24.684;2024-02-28T11:05:40;20.98;;;9.20;;
22752;SDS011;11543;43.144;24.684;2024-02-28T11:08:10;23.95;;;9.93;;
22752;SDS011;11543;43.144;24.684;2024-02-28T11:10:42;19.98;;;9.50;;
22752;SDS011;11543;43.144;24.684;2024-02-28T11:13:09;19.20;;;10.05;;
22752;SDS011;11543;43.144;24.684;2024-02-28T11:15:46;22.30;;;10.48;;
22752;SDS011;11543;43.144;24.684;2024-02-28T11:18:11;21.67;;;11.38;;
22752;SDS011;11543;43.144;24.684;2024-02-28T11:20:38;21.70;;;11.80;;
22752;SDS011;11543;43.144;24.684;2024-02-28T11:23:05;23.38;;;12.23;;
22752;SDS011;11543;43.144;24.684;2024-02-28T11:25:32;25.33;;;12.27;;
22752;SDS011;11543;43.144;24.684;2024-02-28T11:27:57;23.02;;;11.80;;
22752;SDS011;11543;43.144;24.684;2024-02-28T11:30:24;23.02;;;11.35;;
22752;SDS011;11543;43.144;24.684;2024-02-28T11:32:51;27.00;;;12.63;;
22752;SDS011;11543;43.144;24.684;2024-02-28T11:35:18;20.63;;;11.07;;
22752;SDS011;11543;43.144;24.684;2024-02-28T11:37:47;20.40;;;11.27;;
22752;SDS011;11543;43.144;24.684;2024-02-28T11:40:13;23.60;;;11.52;;
22752;SDS011;11543;43.144;24.684;2024-02-28T11:42:39;22.67;;;11.77;;
22752;SDS011;11543;43.144;24.684;2024-02-28T11:45:05;21.63;;;12.45;;
22752;SDS011;11543;43.144;24.684;2024-02-28T11:47:34;26.40;;;12.75;;
22752;SDS011;11543;43.144;24.684;2024-02-28T11:50:03;29.67;;;18.75;;
22752;SDS011;11543;43.144;24.684;2024-02-28T11:52:33;23.00;;;13.02;;
22752;SDS011;11543;43.144;24.684;2024-02-28T11:54:58;22.95;;;13.15;;
22752;SDS011;11543;43.144;24.684;2024-02-28T11:57:24;21.80;;;12.48;;
22752;SDS011;11543;43.144;24.684;2024-02-28T11:59:51;21.10;;;13.57;;
22752;SDS011;11543;43.144;24.684;2024-02-28T12:02:17;23.70;;;13.40;;
22752;SDS011;11543;43.144;24.684;2024-02-28T12:04:43;24.73;;;13.45;;
22752;SDS011;11543;43.144;24.684;2024-02-28T12:07:09;21.80;;;12.45;;
22752;SDS011;11543;43.144;24.684;2024-02-28T12:09:35;21.70;;;13.63;;
22752;SDS011;11543;43.144;24.684;2024-02-28T12:12:01;29.92;;;19.77;;
22752;SDS011;11543;43.144;24.684;2024-02-28T12:14:31;24.67;;;13.65;;
22752;SDS011;11543;43.144;24.684;2024-02-28T12:16:57;19.50;;;12.27;;
22752;SDS011;11543;43.144;24.684;2024-02-28T12:19:23;23.65;;;13.63;;
22752;SDS011;11543;43.144;24.684;2024-02-28T12:21:49;23.88;;;13.88;;
22752;SDS011;11543;43.144;24.684;2024-02-28T12:24:15;23.98;;;14.07;;
22752;SDS011;11543;43.144;24.684;2024-02-28T12:26:40;23.23;;;13.88;;
22752;SDS011;11543;43.144;24.684;2024-02-28T12:29:06;25.42;;;14.45;;
22752;SDS011;11543;43.144;24.684;2024-02-28T12:31:31;25.08;;;15.50;;
22752;SDS011;11543;43.144;24.684;2024-02-28T12:33:57;24.42;;;14.52;;
22752;SDS011;11543;43.144;24.684;2024-02-28T12:36:23;26.83;;;15.00;;
22752;SDS011;11543;43.144;24.684;2024-02-28T12:38:48;26.05;;;14.95;;
22752;SDS011;11543;43.144;24.684;2024-02-28T12:41:14;27.23;;;15.38;;
22752;SDS011;11543;43.144;24.684;2024-02-28T12:43:40;28.77;;;14.57;;
22752;SDS011;11543;43.144;24.684;2024-02-28T12:46:06;25.45;;;14.77;;
22752;SDS011;11543;43.144;24.684;2024-02-28T12:48:38;25.38;;;15.15;;
22752;SDS011;11543;43.144;24.684;2024-02-28T12:51:04;29.00;;;15.63;;
22752;SDS011;11543;43.144;24.684;2024-02-28T12:53:31;25.55;;;16.20;;
22752;SDS011;11543;43.144;24.684;2024-02-28T12:55:56;24.30;;;15.27;;
22752;SDS011;11543;43.144;24.684;2024-02-28T12:58:22;29.40;;;15.65;;
22752;SDS011;11543;43.144;24.684;2024-02-28T13:00:49;34.35;;;17.67;;
22752;SDS011;11543;43.144;24.684;2024-02-28T13:03:14;88.50;;;29.25;;
22752;SDS011;11543;43.144;24.684;2024-02-28T13:05:41;46.47;;;21.05;;
22752;SDS011;11543;43.144;24.684;2024-02-28T13:08:06;53.70;;;23.13;;
22752;SDS011;11543;43.144;24.684;2024-02-28T13:10:32;64.13;;;26.40;;
22752;SDS011;11543;43.144;24.684;2024-02-28T13:13:01;47.40;;;21.23;;
22752;SDS011;11543;43.144;24.684;2024-02-28T13:15:27;42.35;;;19.42;;
22752;SDS011;11543;43.144;24.684;2024-02-28T13:17:52;33.63;;;17.77;;
22752;SDS011;11543;43.144;24.684;2024-02-28T13:20:18;28.92;;;16.00;;
22752;SDS011;11543;43.144;24.684;2024-02-28T13:22:43;30.92;;;16.00;;
22752;SDS011;11543;43.144;24.684;2024-02-28T13:25:09;39.20;;;18.10;;
22752;SDS011;11543;43.144;24.684;2024-02-28T13:27:36;30.35;;;16.65;;
22752;SDS011;11543;43.144;24.684;2024-02-28T13:30:02;26.98;;;16.13;;
22752;SDS011;11543;43.144;24.684;2024-02-28T13:32:28;24.83;;;14.95;;
22752;SDS011;11543;43.144;24.684;2024-02-28T13:34:54;27.85;;;15.13;;
22752;SDS011;11543;43.144;24.684;2024-02-28T13:37:19;26.92;;;14.85;;
22752;SDS011;11543;43.144;24.684;2024-02-28T13:39:45;29.55;;;13.90;;
22752;SDS011;11543;43.144;24.684;2024-02-28T13:42:11;27.45;;;14.80;;
22752;SDS011;11543;43.144;24.684;2024-02-28T13:44:37;32.03;;;17.83;;
22752;SDS011;11543;43.144;24.684;2024-02-28T13:47:03;24.67;;;12.93;;
22752;SDS011;11543;43.144;24.684;2024-02-28T13:49:29;24.25;;;12.77;;
22752;SDS011;11543;43.144;24.684;2024-02-28T13:51:54;24.65;;;12.55;;
22752;SDS011;11543;43.144;24.684;2024-02-28T13:54:20;25.67;;;12.32;;
22752;SDS011;11543;43.144;24.684;2024-02-28T13:56:45;24.52;;;11.48;;
22752;SDS011;11543;43.144;24.684;2024-02-28T13:59:11;20.35;;;10.75;;
22752;SDS011;11543;43.144;24.684;2024-02-28T14:01:37;21.05;;;10.27;;
22752;SDS011;11543;43.144;24.684;2024-02-28T14:04:03;20.38;;;9.93;;